Latest Weather Observations for Hopetoun Airport

IDV60801

Issued at 8:31 am EDT Saturday 7 March 2015 (issued every 30 minutes, with the page automatically refreshed every 10 minutes)

About weather observations | Map of weather stations | Latest weather observations for VIC | Other Formats
Station Details ID: 077010 Name: HOPETOUN AIRPORT Lat: -35.72 Lon: 142.36 Height: 77.3 m
Data from the previous 72 hours. | See also: Recent months at Hopetoun Airport
Date/Time
EDT
Temp
°C
App
Temp
°C
Dew
Point
Rel
Hum
%
Delta-T
°C
Wind Press
QNH
hPa
Press
MSL
hPa
Rain
since 9 am
mm
Dir
 
Spd
km/h
Gust
km/h
Spd
kts
Gust
kts
07/08:30am 14.3 12.5 12.2 87 1.1 WSW 13 17 7 9 1015.2 1015.0 0.0
07/08:00am 14.0 11.7 11.9 87 1.1 WSW 15 20 8 11 1014.6 1014.4 0.0
07/07:30am 14.2 12.0 12.2 88 1.1 WSW 15 20 8 11 1014.0 1013.8 0.0
07/07:00am 14.3 12.1 12.2 87 1.1 WSW 15 17 8 9 1014.0 1013.8 0.0
07/06:30am 14.4 12.8 11.6 83 1.5 SW 11 15 6 8 1013.6 1013.4 0.0
07/06:00am 14.3 13.1 11.5 83 1.5 SSW 9 13 5 7 1013.3 1013.1 0.0
07/05:30am 14.5 12.4 11.3 81 1.7 SSW 13 17 7 9 1013.2 1013.0 0.0
07/05:00am 14.2 12.9 11.4 83 1.5 SSW 9 13 5 7 1013.1 1012.9 0.0
07/04:30am 13.9 11.4 11.1 83 1.5 SW 15 20 8 11 1013.3 1013.1 0.0
07/04:00am 13.9 10.9 10.7 81 1.7 SW 17 22 9 12 1013.4 1013.2 0.0
07/03:30am 13.8 10.7 10.2 79 1.9 SW 17 22 9 12 1013.5 1013.3 0.0
07/03:00am 13.2 11.4 9.3 77 2.0 SW 9 11 5 6 1013.5 1013.3 0.0
07/02:30am 13.5 11.3 9.4 76 2.1 SW 11 13 6 7 1013.5 1013.3 0.0
07/02:00am 14.1 12.0 9.7 75 2.3 WSW 11 15 6 8 1014.0 1013.8 0.0
07/01:30am 14.7 12.6 9.9 73 2.5 WSW 11 15 6 8 1014.2 1014.0 0.0
07/01:00am 15.1 13.0 9.9 71 2.7 WSW 11 13 6 7 1014.2 1014.0 0.0
07/12:30am 15.7 13.3 10.0 69 3.0 SW 13 15 7 8 1014.2 1014.0 0.0
07/12:00am 15.8 13.7 9.9 68 3.1 WSW 11 15 6 8 1014.3 1014.1 0.0
 
Date/Time
EDT
Temp
°C
App
Temp
°C
Dew
Point
Rel
Hum
%
Delta-T
°C
Wind Press
QNH
hPa
Press
MSL
hPa
Rain
since 9 am
mm
Dir
 
Spd
km/h
Gust
km/h
Spd
kts
Gust
kts
06/11:30pm 16.7 13.9 10.1 65 3.5 SW 15 17 8 9 1014.2 1014.0 0.0
06/11:00pm 17.1 14.7 10.2 64 3.7 SW 13 17 7 9 1014.2 1014.0 0.0
06/10:30pm 18.0 16.1 10.6 62 4.0 SW 11 13 6 7 1014.3 1014.1 0.0
06/10:00pm 18.6 16.8 10.9 61 4.2 SW 11 15 6 8 1014.2 1014.0 0.0
06/09:30pm 19.3 17.2 11.1 59 4.5 SW 13 17 7 9 1014.0 1013.8 0.0
06/09:00pm 20.3 17.0 11.5 57 4.9 SW 20 28 11 15 1013.8 1013.6 0.0
06/08:30pm 21.2 17.7 11.0 52 5.6 SW 20 28 11 15 1013.6 1013.4 0.0
06/08:00pm 21.5 17.6 10.9 51 5.8 SW 22 32 12 17 1013.3 1013.1 0.0
06/07:30pm 21.6 17.0 11.0 51 5.9 SW 26 35 14 19 1013.2 1013.0 0.0
06/07:00pm 22.0 16.6 10.8 49 6.2 SW 30 43 16 23 1012.9 1012.7 0.0
06/06:30pm 22.9 17.4 10.7 46 6.8 SW 30 41 16 22 1012.8 1012.6 0.0
06/06:00pm 23.2 18.2 10.9 46 6.8 SW 28 41 15 22 1012.8 1012.6 0.0
06/05:30pm 23.7 18.2 10.7 44 7.2 SW 30 44 16 24 1012.5 1012.3 0.0
06/05:00pm 23.9 18.0 10.6 43 7.4 SW 32 43 17 23 1012.5 1012.3 0.0
06/04:30pm 24.2 19.0 10.1 41 7.8 SW 28 43 15 23 1012.6 1012.4 0.0
06/04:00pm 24.2 19.6 9.8 40 7.9 SW 24 37 13 20 1012.9 1012.7 0.0
06/03:30pm 23.7 19.5 9.7 41 7.7 SW 22 35 12 19 1013.4 1013.2 0.0
06/03:00pm 23.9 19.2 10.6 43 7.4 SW 26 39 14 21 1013.7 1013.5 0.0
06/02:30pm 23.0 18.1 9.8 43 7.2 SW 26 35 14 19 1013.9 1013.7 0.0
06/02:00pm 22.4 17.4 9.6 44 6.9 SW 26 37 14 20 1014.3 1014.1 0.0
06/01:30pm 21.6 17.3 9.5 46 6.5 SW 22 39 12 21 1014.8 1014.6 0.0
06/01:14pm 21.8 16.3 9.3 45 6.7 SW 28 50 15 27 1014.8 1014.6 0.0
06/01:00pm 21.2 15.9 9.8 48 6.2 SW 28 39 15 21 1015.1 1014.9 0.0
06/12:30pm 20.4 14.6 9.3 49 5.9 WSW 30 41 16 22 1015.4 1015.2 0.0
06/12:00pm 19.5 14.4 9.1 51 5.5 WSW 26 35 14 19 1016.0 1015.8 0.0
06/11:30am 18.9 12.7 9.4 54 5.0 SW 32 44 17 24 1016.3 1016.0 0.0
06/11:00am 18.0 12.2 9.4 57 4.5 SW 30 39 16 21 1016.5 1016.2 0.0
06/10:30am 17.4 10.1 8.8 57 4.5 SW 37 50 20 27 1016.1 1015.9 0.0
06/10:00am 16.8 10.0 9.2 61 3.9 SW 35 46 19 25 1016.0 1015.8 0.0
06/09:30am 16.5 11.3 9.0 61 3.9 SW 26 33 14 18 1015.9 1015.7 0.0
06/09:00am 14.6 11.0 8.5 67 3.1 W 17 24 9 13 1015.9 1015.7 0.0
06/08:30am 13.4 9.4 8.3 71 2.5 W 19 24 10 13 1015.7 1015.5 0.0
06/08:00am 12.3 8.6 7.8 74 2.2 W 17 20 9 11 1015.5 1015.3 0.0
06/07:30am 11.8 8.4 7.7 76 2.0 W 15 20 8 11 1015.4 1015.2 0.0
06/07:00am 11.8 7.4 7.5 75 2.1 W 20 28 11 15 1015.3 1015.1 0.0
06/06:30am 11.6 7.8 7.5 76 2.0 W 17 22 9 12 1015.4 1015.2 0.0
06/06:00am 10.7 7.1 6.6 76 1.9 WSW 15 19 8 10 1015.5 1015.3 0.0
06/05:30am 11.0 7.3 6.4 73 2.2 W 15 19 8 10 1015.9 1015.7 0.0
06/05:00am 11.3 8.0 6.4 72 2.3 W 13 17 7 9 1016.1 1015.9 0.0
06/04:30am 11.1 6.9 5.8 70 2.5 W 17 20 9 11 1016.0 1015.8 0.0
06/04:00am 11.1 7.2 5.4 68 2.6 W 15 19 8 10 1016.4 1016.1 0.0
06/03:30am 11.4 7.5 5.3 66 2.8 W 15 17 8 9 1016.7 1016.4 0.0
06/03:00am 11.8 8.2 5.2 64 3.0 W 13 17 7 9 1017.1 1016.8 0.0
06/02:30am 12.1 7.4 5.0 62 3.3 WSW 19 22 10 12 1017.1 1016.8 0.0
06/02:00am 12.3 8.7 5.0 61 3.4 W 13 19 7 10 1017.9 1017.6 0.0
06/01:30am 12.9 8.6 5.3 60 3.5 WSW 17 24 9 13 1018.3 1018.0 0.0
06/01:00am 13.2 8.5 5.1 58 3.8 WSW 19 24 10 13 1018.3 1018.0 0.0
06/12:30am 13.8 8.9 5.2 56 4.0 SW 20 28 11 15 1018.5 1018.2 0.0
06/12:00am 14.4 8.4 5.2 54 4.3 SW 26 35 14 19 1018.5 1018.2 0.0
 
Date/Time
EDT
Temp
°C
App
Temp
°C
Dew
Point
Rel
Hum
%
Delta-T
°C
Wind Press
QNH
hPa
Press
MSL
hPa
Rain
since 9 am
mm
Dir
 
Spd
km/h
Gust
km/h
Spd
kts
Gust
kts
05/11:30pm 14.9 9.1 4.6 50 4.8 SW 24 33 13 18 1018.5 1018.2 0.0
05/11:00pm 15.9 7.7 4.6 47 5.3 SW 37 48 20 26 1018.9 1018.6 0.0
05/10:30pm 16.8 8.9 4.2 43 5.9 SW 35 48 19 26 1018.5 1018.2 0.0
05/10:00pm 17.6 10.4 3.1 38 6.7 SW 30 39 16 21 1018.2 1017.9 0.0
05/09:30pm 18.3 11.4 2.6 35 7.2 SW 28 33 15 18 1017.7 1017.4 0.0
05/09:00pm 19.0 12.7 1.5 31 7.9 SW 24 32 13 17 1017.2 1016.9 0.0
05/08:30pm 19.9 12.8 1.4 29 8.4 SW 28 35 15 19 1017.3 1017.0 0.0
05/08:00pm 20.9 13.7 0.7 26 9.1 SW 28 35 15 19 1017.1 1016.8 0.0
05/07:30pm 21.9 14.7 0.4 24 9.8 SW 28 35 15 19 1017.0 1016.7 0.0
05/07:00pm 22.6 15.3 -0.2 22 10.3 SW 28 37 15 20 1017.0 1016.7 0.0
05/06:30pm 22.9 15.2 0.1 22 10.4 SW 30 41 16 22 1016.7 1016.4 0.0
05/06:00pm 23.3 17.1 -0.2 21 10.6 SW 22 32 12 17 1016.7 1016.4 0.0
05/05:30pm 23.8 17.2 -0.5 20 11.0 SW 24 35 13 19 1016.5 1016.2 0.0
05/05:00pm 23.4 16.7 -0.8 20 10.8 SW 24 33 13 18 1017.0 1016.7 0.0
05/04:30pm 23.3 16.2 -0.9 20 10.8 SW 26 39 14 21 1017.3 1017.0 0.0
05/04:00pm 22.9 16.2 -1.2 20 10.7 SW 24 37 13 20 1017.8 1017.5 0.0
05/03:30pm 22.4 16.3 0.3 23 10.1 WSW 22 46 12 25 1018.0 1017.7 0.0
05/03:00pm 21.4 15.6 -1.2 22 9.9 SSW 19 28 10 15 1018.4 1018.1 0.0
05/02:30pm 21.4 14.9 0.0 24 9.6 SSW 24 41 13 22 1018.9 1018.6 0.0
05/02:00pm 21.6 15.5 0.2 24 9.6 SW 22 37 12 20 1019.3 1019.0 0.0
05/01:30pm 19.8 13.7 0.3 27 8.7 SSW 22 33 12 18 1019.6 1019.3 0.0
05/01:00pm 19.8 13.8 1.3 29 8.4 SSW 22 46 12 25 1020.0 1019.7 0.0
05/12:30pm 18.6 11.9 1.2 31 7.8 SSW 26 41 14 22 1020.7 1020.5 0.0
05/12:00pm 18.1 11.8 1.6 33 7.4 SSW 24 33 13 18 1020.9 1020.7 0.0
05/11:30am 17.8 11.3 2.9 37 6.9 SSW 26 43 14 23 1021.0 1020.8 0.0
05/11:00am 16.7 9.8 2.7 39 6.4 SSW 28 44 15 24 1020.9 1020.7 0.0
05/10:30am 16.3 9.9 3.0 41 6.1 SSW 26 35 14 19 1020.6 1020.4 0.0
05/10:00am 15.4 8.6 3.2 44 5.5 SSW 28 43 15 23 1020.5 1020.3 0.0
05/09:30am 14.9 8.6 3.7 47 5.1 SSW 26 37 14 20 1020.5 1020.3 0.0
05/09:00am 13.8 8.0 4.4 53 4.3 SSW 24 35 13 19 1020.0 1019.7 0.0
05/08:30am 12.8 8.0 4.8 58 3.7 SW 19 24 10 13 1019.5 1019.2 0.0
05/08:00am 11.6 8.2 6.1 69 2.6 SW 13 19 7 10 1019.0 1018.7 0.0
05/07:30am 11.3 9.0 5.6 68 2.6 SSW 7 11 4 6 1018.4 1018.1 0.0
05/07:00am 12.6 7.9 6.0 64 3.1 SSW 20 32 11 17 1017.9 1017.6 0.0
05/06:30am 13.2 7.5 6.5 64 3.2 SSW 26 33 14 18 1017.6 1017.3 0.0
05/06:00am 13.8 7.6 8.0 68 2.9 SSW 30 39 16 21 1017.2 1016.9 0.0
05/05:30am 13.9 7.9 8.7 71 2.6 SW 30 39 16 21 1016.4 1016.1 0.0
05/05:00am 14.3 8.0 8.9 70 2.7 SW 32 41 17 22 1015.9 1015.7 0.0
05/04:30am 14.8 8.5 9.6 71 2.7 SW 33 44 18 24 1015.5 1015.3 0.0
05/04:00am 15.3 8.7 9.9 70 2.8 SW 35 48 19 26 1015.4 1015.2 0.0
05/03:30am 15.7 8.3 9.8 68 3.1 SW 39 52 21 28 1015.1 1014.9 0.0
05/03:23am 15.5 10.5 10.9 74 2.5 SW 28 50 15 27 1015.0 1014.8 0.0
05/03:00am 15.4 9.9 12.5 83 1.6 WSW 33 43 18 23 1015.0 1014.8 0.0
05/02:30am 16.8 11.8 12.1 74 2.6 WSW 30 43 16 23 1014.8 1014.6 0.0
05/02:00am 16.3 10.8 12.3 77 2.2 WSW 33 43 18 23 1015.0 1014.8 0.0
05/01:30am 16.6 10.6 12.2 75 2.4 WSW 35 44 19 24 1014.9 1014.7 0.0
05/01:00am 16.6 9.6 12.4 76 2.3 WSW 41 57 22 31 1015.0 1014.8 0.0
05/12:30am 17.8 11.9 11.1 65 3.6 WSW 33 46 18 25 1014.9 1014.7 0.0
05/12:00am 18.2 13.8 10.3 60 4.2 W 24 39 13 21 1014.6 1014.4 0.0
 
Date/Time
EDT
Temp
°C
App
Temp
°C
Dew
Point
Rel
Hum
%
Delta-T
°C
Wind Press
QNH
hPa
Press
MSL
hPa
Rain
since 9 am
mm
Dir
 
Spd
km/h
Gust
km/h
Spd
kts
Gust
kts
04/11:30pm 18.6 12.1 10.2 58 4.5 WSW 35 44 19 24 1014.9 1014.7 0.0
04/11:00pm 18.9 12.6 11.2 61 4.2 WSW 35 50 19 27 1015.1 1014.9 0.0
04/10:30pm 19.1 11.4 10.1 56 4.8 WSW 41 50 22 27 1015.1 1014.9 0.0
04/10:00pm 19.1 12.5 10.1 56 4.8 WSW 35 48 19 26 1014.9 1014.7 0.0
04/09:30pm 18.8 12.7 10.4 58 4.5 WSW 33 44 18 24 1014.5 1014.3 0.0
04/09:00pm 19.7 13.9 9.6 52 5.4 WSW 30 43 16 23 1013.9 1013.7 0.0
04/08:30pm 20.3 14.5 9.5 50 5.8 WSW 30 37 16 20 1013.5 1013.3 0.0
04/08:00pm 21.1 14.8 9.7 48 6.1 WSW 33 43 18 23 1013.5 1013.3 0.0
04/07:30pm 22.5 15.8 9.6 44 7.0 SW 35 46 19 25 1013.3 1013.1 0.0
04/07:00pm 24.6 18.1 8.1 35 8.8 WSW 32 43 17 23 1012.9 1012.7 0.0
04/06:30pm 25.6 18.5 8.1 33 9.4 WSW 35 44 19 24 1012.7 1012.5 0.0
04/06:00pm 26.3 19.7 7.8 31 9.9 WSW 32 43 17 23 1012.5 1012.3 0.0
04/05:30pm 26.4 20.2 7.9 31 9.9 WSW 30 43 16 23 1012.5 1012.3 0.0
04/05:00pm 26.5 20.7 8.0 31 10.0 W 28 43 15 23 1012.8 1012.6 0.0
04/04:30pm 26.5 20.2 7.5 30 10.1 WSW 30 41 16 22 1013.3 1013.1 0.0
04/04:00pm 25.8 20.6 7.4 31 9.8 W 24 39 13 21 1013.6 1013.4 0.0
04/03:30pm 25.9 19.4 6.5 29 10.1 W 30 43 16 23 1013.8 1013.6 0.0
04/03:00pm 25.3 19.9 6.5 30 9.8 WSW 24 39 13 21 1014.4 1014.2 0.0
04/02:30pm 24.7 19.2 6.0 30 9.6 W 24 37 13 20 1014.8 1014.6 0.0
04/02:00pm 23.7 18.6 6.0 32 9.0 WSW 22 35 12 19 1015.3 1015.1 0.0
04/01:30pm 23.6 18.6 6.4 33 8.9 WSW 22 39 12 21 1015.6 1015.4 0.0
04/01:00pm 22.4 17.6 5.8 34 8.4 WSW 20 30 11 16 1016.1 1015.9 0.0
04/12:30pm 21.0 17.1 6.9 40 7.2 SW 17 30 9 16 1016.7 1016.4 0.0
04/12:00pm 19.6 16.1 7.4 45 6.2 SW 15 32 8 17 1017.2 1016.9 0.0
04/11:30am 19.2 15.4 7.6 47 5.9 SW 17 24 9 13 1017.4 1017.1 0.0
04/11:00am 18.5 14.8 7.9 50 5.4 SSW 17 24 9 13 1017.8 1017.5 0.0
04/10:30am 18.0 14.4 8.3 53 5.0 SSW 17 28 9 15 1017.9 1017.6 0.0
04/10:00am 16.6 12.6 8.3 58 4.2 S 19 32 10 17 1018.0 1017.7 0.0
04/09:30am 15.6 11.5 8.8 64 3.5 SSW 20 28 11 15 1018.1 1017.8 0.0
04/09:00am 14.5 11.0 8.9 69 2.8 SSW 17 24 9 13 1017.9 1017.6 0.0

Other Formats:

Comma delimited format used in spreadsheet applications
http://www.bom.gov.au/fwo/IDV60801/IDV60801.94838.axf

JavaScript Object Notation format (JSON) in row-major order
http://www.bom.gov.au/fwo/IDV60801/IDV60801.94838.json